Time;durP1;ratioP1;P1;durP2;ratioP2;P2;SDS_P1;SDS_P2;PMS_P1;PMS_P2;Temp;Humidity;BMP_temperature;BMP_pressure;BME280_temperature;BME280_humidity;BME280_pressure;Samples;Min_cycle;Max_cycle;Signal;HPM_P1;HPM_P2
2022/01/08 00:01:57;;;;;;;3.35;1.00;;;;;;;;;;5041421;28;20203;-46
2022/01/08 00:04:23;;;;;;;1.33;0.80;;;;;;;;;;5011889;28;20485;-46
2022/01/08 00:06:49;;;;;;;1.00;0.95;;;;;;;;;;5039283;28;20192;-46
2022/01/08 00:09:15;;;;;;;1.05;0.85;;;;;;;;;;5040331;28;20254;-46
2022/01/08 00:11:42;;;;;;;0.95;0.95;;;;;;;;;;5036745;28;20498;-46
2022/01/08 00:14:10;;;;;;;1.00;1.00;;;;;;;;;;5038514;28;20175;-46
2022/01/08 00:16:37;;;;;;;0.88;0.88;;;;;;;;;;5047794;28;20280;-46
2022/01/08 00:19:04;;;;;;;0.75;0.75;;;;;;;;;;5041818;28;20178;-46
2022/01/08 00:21:30;;;;;;;0.80;0.80;;;;;;;;;;5032495;28;20212;-46
2022/01/08 00:23:56;;;;;;;1.00;0.90;;;;;;;;;;5038682;28;20645;-47
2022/01/08 00:26:22;;;;;;;0.88;0.88;;;;;;;;;;5037970;28;20197;-46
2022/01/08 00:28:48;;;;;;;0.80;0.70;;;;;;;;;;5022399;28;20195;-46
2022/01/08 00:31:14;;;;;;;1.23;0.80;;;;;;;;;;5044634;28;20175;-46
2022/01/08 00:33:41;;;;;;;0.80;0.80;;;;;;;;;;5035878;28;20845;-46
2022/01/08 00:36:07;;;;;;;3.90;1.00;;;;;;;;;;5033664;28;20278;-47
2022/01/08 00:38:33;;;;;;;0.73;0.73;;;;;;;;;;5035209;28;20198;-46
2022/01/08 00:40:59;;;;;;;0.70;0.70;;;;;;;;;;5046741;28;20744;-46
2022/01/08 00:43:25;;;;;;;0.80;0.70;;;;;;;;;;5040365;28;20207;-46
2022/01/08 00:45:51;;;;;;;1.25;0.80;;;;;;;;;;5041694;28;20569;-46
2022/01/08 00:48:18;;;;;;;0.75;0.75;;;;;;;;;;5043479;28;20599;-46
2022/01/08 00:50:44;;;;;;;0.70;0.70;;;;;;;;;;5032943;28;20188;-46
2022/01/08 00:53:10;;;;;;;1.42;1.20;;;;;;;;;;5041348;28;20183;-46
2022/01/08 00:55:36;;;;;;;1.77;0.90;;;;;;;;;;5026618;28;20185;-46
2022/01/08 00:58:02;;;;;;;0.90;0.80;;;;;;;;;;5044028;28;20688;-46
2022/01/08 01:00:28;;;;;;;0.82;0.80;;;;;;;;;;5037910;28;20188;-46
2022/01/08 01:02:53;;;;;;;0.85;0.85;;;;;;;;;;5049117;28;20253;-46
2022/01/08 01:05:20;;;;;;;0.70;0.70;;;;;;;;;;5034657;28;20183;-46
2022/01/08 01:07:46;;;;;;;1.23;0.85;;;;;;;;;;5031759;28;20183;-46
2022/01/08 01:10:12;;;;;;;0.80;0.80;;;;;;;;;;5036801;28;20203;-46
2022/01/08 01:12:39;;;;;;;0.85;0.85;;;;;;;;;;5042131;28;20188;-46
2022/01/08 01:15:06;;;;;;;0.68;0.68;;;;;;;;;;5047261;28;20221;-46
2022/01/08 01:17:32;;;;;;;0.70;0.70;;;;;;;;;;5039870;28;20188;-46
2022/01/08 01:19:58;;;;;;;0.80;0.80;;;;;;;;;;5040933;28;20182;-46
2022/01/08 01:22:28;;;;;;;0.60;0.60;;;;;;;;;;5037610;28;20168;-46
2022/01/08 01:25:03;;;;;;;0.80;0.80;;;;;;;;;;5043287;28;20211;-46
2022/01/08 01:30:04;;;;;;;0.93;0.80;;;;;;;;;;5029327;28;20200;-46
2022/01/08 01:48:39;;;;;;;0.95;0.73;;;;;;;;;;5036541;28;20601;-46
2022/01/08 01:51:05;;;;;;;0.70;0.70;;;;;;;;;;5044697;28;20190;-46
2022/01/08 01:53:31;;;;;;;0.77;0.77;;;;;;;;;;5042084;28;20277;-46
2022/01/08 01:55:57;;;;;;;0.60;0.60;;;;;;;;;;5032047;28;20231;-46
2022/01/08 01:58:23;;;;;;;0.70;0.70;;;;;;;;;;5022373;28;20195;-46
2022/01/08 02:00:51;;;;;;;0.63;0.63;;;;;;;;;;5021393;28;20228;-46
2022/01/08 02:03:17;;;;;;;0.70;0.70;;;;;;;;;;5022427;28;20254;-46
2022/01/08 02:05:43;;;;;;;0.80;0.50;;;;;;;;;;5023517;28;20977;-46
2022/01/08 02:08:12;;;;;;;0.50;0.50;;;;;;;;;;5025728;28;20182;-46
2022/01/08 02:10:38;;;;;;;0.50;0.50;;;;;;;;;;5021535;28;20177;-46
2022/01/08 02:13:04;;;;;;;0.50;0.50;;;;;;;;;;5042895;28;20597;-46
2022/01/08 02:15:30;;;;;;;1.17;0.60;;;;;;;;;;5045914;28;20192;-46
2022/01/08 02:17:56;;;;;;;0.60;0.60;;;;;;;;;;5053667;28;20434;-46
2022/01/08 02:20:22;;;;;;;0.60;0.60;;;;;;;;;;5040321;28;20270;-46
2022/01/08 02:22:48;;;;;;;0.60;0.60;;;;;;;;;;5052253;28;20237;-46
2022/01/08 02:25:14;;;;;;;0.52;0.52;;;;;;;;;;5041010;28;20179;-46
2022/01/08 02:27:40;;;;;;;0.60;0.60;;;;;;;;;;5032227;28;20614;-46
2022/01/08 02:30:06;;;;;;;0.90;0.55;;;;;;;;;;5036270;28;20257;-46
2022/01/08 02:32:32;;;;;;;0.60;0.60;;;;;;;;;;5040231;28;20214;-46
2022/01/08 02:34:58;;;;;;;0.70;0.70;;;;;;;;;;5028748;28;20573;-46
2022/01/08 02:37:29;;;;;;;0.80;0.60;;;;;;;;;;5049417;28;20180;-46
2022/01/08 02:39:55;;;;;;;0.60;0.60;;;;;;;;;;5040242;28;20191;-46
2022/01/08 02:42:21;;;;;;;0.63;0.63;;;;;;;;;;5054905;28;20747;-46
2022/01/08 02:44:49;;;;;;;0.50;0.50;;;;;;;;;;5042053;28;20208;-46
2022/01/08 02:47:15;;;;;;;0.50;0.50;;;;;;;;;;5033397;28;20206;-46
2022/01/08 02:49:41;;;;;;;0.47;0.47;;;;;;;;;;5028486;28;20196;-46
2022/01/08 02:52:07;;;;;;;0.52;0.52;;;;;;;;;;5048733;28;20190;-46
2022/01/08 02:54:34;;;;;;;1.90;0.68;;;;;;;;;;5031626;28;20188;-46
2022/01/08 02:57:00;;;;;;;0.75;0.50;;;;;;;;;;5002240;28;20192;-46
2022/01/08 02:59:26;;;;;;;1.10;0.70;;;;;;;;;;5030466;28;20184;-46
2022/01/08 03:01:55;;;;;;;0.93;0.63;;;;;;;;;;5051155;28;20625;-46
2022/01/08 03:04:21;;;;;;;0.73;0.70;;;;;;;;;;5037662;28;20222;-46
2022/01/08 03:06:47;;;;;;;0.50;0.50;;;;;;;;;;5043178;28;20176;-46
2022/01/08 03:09:13;;;;;;;0.63;0.60;;;;;;;;;;5041224;28;20186;-46
2022/01/08 03:11:41;;;;;;;0.60;0.60;;;;;;;;;;5050912;28;20190;-46
2022/01/08 03:14:07;;;;;;;0.55;0.55;;;;;;;;;;5044672;28;20174;-46
2022/01/08 03:16:33;;;;;;;1.35;0.80;;;;;;;;;;5044850;28;20184;-46
2022/01/08 03:19:07;;;;;;;0.77;0.68;;;;;;;;;;5043082;28;20498;-46
2022/01/08 03:21:35;;;;;;;0.50;0.50;;;;;;;;;;5051694;28;20187;-46
2022/01/08 03:24:03;;;;;;;0.70;0.70;;;;;;;;;;5022120;28;20202;-46
2022/01/08 03:26:29;;;;;;;0.40;0.40;;;;;;;;;;5037440;28;20168;-47
2022/01/08 03:28:56;;;;;;;0.60;0.60;;;;;;;;;;5034858;28;20190;-47
2022/01/08 03:31:22;;;;;;;0.73;0.73;;;;;;;;;;5049977;28;20282;-47
2022/01/08 03:33:49;;;;;;;0.50;0.50;;;;;;;;;;5020332;28;20465;-46
2022/01/08 03:36:16;;;;;;;0.60;0.60;;;;;;;;;;5041120;28;20314;-46
2022/01/08 03:38:42;;;;;;;0.50;0.50;;;;;;;;;;5026416;28;20199;-46
2022/01/08 03:41:08;;;;;;;0.50;0.50;;;;;;;;;;5049731;28;20260;-46
2022/01/08 03:43:34;;;;;;;0.50;0.50;;;;;;;;;;5036198;28;20208;-47
2022/01/08 03:46:03;;;;;;;0.50;0.50;;;;;;;;;;5042939;28;20171;-46
2022/01/08 03:48:32;;;;;;;0.50;0.50;;;;;;;;;;5023801;28;20181;-46
2022/01/08 03:50:59;;;;;;;0.68;0.68;;;;;;;;;;5046724;28;20171;-46
2022/01/08 03:53:26;;;;;;;0.73;0.52;;;;;;;;;;5032952;28;20184;-46
2022/01/08 03:55:52;;;;;;;0.60;0.60;;;;;;;;;;5033249;28;20185;-46
2022/01/08 03:58:18;;;;;;;0.50;0.50;;;;;;;;;;5039699;28;20687;-46
2022/01/08 04:00:45;;;;;;;0.45;0.45;;;;;;;;;;5040014;28;20525;-46
2022/01/08 04:03:11;;;;;;;0.35;0.35;;;;;;;;;;5036519;28;20214;-46
2022/01/08 04:05:37;;;;;;;0.60;0.60;;;;;;;;;;5045726;28;20187;-46
2022/01/08 04:08:03;;;;;;;0.60;0.60;;;;;;;;;;5042847;28;20176;-46
2022/01/08 04:10:29;;;;;;;1.20;0.50;;;;;;;;;;5035083;28;20206;-46
2022/01/08 04:12:58;;;;;;;0.50;0.50;;;;;;;;;;5045079;28;20554;-46
2022/01/08 04:17:51;;;;;;;0.73;0.70;;;;;;;;;;5033797;28;20242;-46
2022/01/08 04:20:17;;;;;;;0.85;0.65;;;;;;;;;;5044296;28;20179;-46
2022/01/08 04:22:45;;;;;;;0.50;0.50;;;;;;;;;;5038747;28;20190;-46
2022/01/08 04:25:11;;;;;;;0.82;0.60;;;;;;;;;;5047199;28;20190;-46
2022/01/08 04:27:37;;;;;;;0.70;0.70;;;;;;;;;;5039044;28;20223;-46
2022/01/08 04:30:04;;;;;;;0.65;0.65;;;;;;;;;;5038528;28;20489;-46
2022/01/08 04:32:30;;;;;;;0.50;0.50;;;;;;;;;;5032117;28;20218;-46
2022/01/08 04:34:56;;;;;;;0.50;0.50;;;;;;;;;;5033065;28;20633;-46
2022/01/08 04:37:22;;;;;;;0.47;0.47;;;;;;;;;;5036848;28;20179;-46
2022/01/08 04:39:48;;;;;;;0.60;0.60;;;;;;;;;;5043861;28;20190;-46
2022/01/08 04:42:14;;;;;;;0.93;0.63;;;;;;;;;;5049510;28;20452;-46
2022/01/08 04:44:40;;;;;;;0.50;0.50;;;;;;;;;;5039898;28;20214;-46
2022/01/08 04:47:06;;;;;;;0.40;0.40;;;;;;;;;;5041618;28;20566;-46
2022/01/08 04:49:32;;;;;;;0.65;0.65;;;;;;;;;;5028105;28;20250;-46
2022/01/08 04:51:58;;;;;;;0.52;0.50;;;;;;;;;;5017007;28;20266;-46
2022/01/08 04:54:24;;;;;;;0.45;0.45;;;;;;;;;;5027225;28;20188;-46
2022/01/08 04:56:51;;;;;;;0.70;0.65;;;;;;;;;;5042943;28;20513;-46
2022/01/08 04:59:17;;;;;;;0.40;0.40;;;;;;;;;;5021269;28;20190;-47
2022/01/08 05:01:44;;;;;;;1.00;0.77;;;;;;;;;;5021652;28;20203;-46
2022/01/08 05:04:10;;;;;;;0.55;0.50;;;;;;;;;;5034779;28;20196;-46
2022/01/08 05:06:36;;;;;;;0.60;0.55;;;;;;;;;;5034165;28;20203;-46
2022/01/08 05:09:03;;;;;;;0.50;0.50;;;;;;;;;;5037717;28;20315;-46
2022/01/08 05:11:29;;;;;;;0.70;0.70;;;;;;;;;;5041353;28;20214;-46
2022/01/08 05:13:55;;;;;;;0.40;0.40;;;;;;;;;;5030644;28;20700;-46
2022/01/08 05:16:21;;;;;;;0.50;0.50;;;;;;;;;;5049149;28;20209;-46
2022/01/08 05:18:51;;;;;;;0.38;0.38;;;;;;;;;;5023656;28;20199;-46
2022/01/08 05:23:43;;;;;;;0.50;0.50;;;;;;;;;;5041961;28;20591;-46
2022/01/08 05:26:09;;;;;;;0.40;0.40;;;;;;;;;;5052994;28;20175;-46
2022/01/08 05:28:35;;;;;;;0.82;0.77;;;;;;;;;;5038135;28;20195;-46
2022/01/08 05:31:04;;;;;;;0.50;0.50;;;;;;;;;;5050565;28;20187;-46
2022/01/08 05:33:30;;;;;;;0.50;0.50;;;;;;;;;;5025106;28;20230;-46
2022/01/08 05:35:56;;;;;;;0.57;0.57;;;;;;;;;;5051435;28;20182;-47
2022/01/08 05:38:22;;;;;;;0.50;0.50;;;;;;;;;;5030299;28;20210;-46
2022/01/08 05:40:48;;;;;;;0.40;0.40;;;;;;;;;;5049054;28;20558;-46
2022/01/08 05:43:14;;;;;;;0.40;0.40;;;;;;;;;;5039777;28;20207;-46
2022/01/08 05:45:40;;;;;;;0.77;0.43;;;;;;;;;;5049459;28;20179;-46
2022/01/08 05:48:07;;;;;;;0.50;0.50;;;;;;;;;;5025629;28;20230;-46
2022/01/08 05:50:33;;;;;;;0.82;0.70;;;;;;;;;;5048385;28;20217;-46
2022/01/08 05:52:59;;;;;;;0.60;0.60;;;;;;;;;;5046736;28;20199;-46
2022/01/08 05:55:25;;;;;;;0.40;0.40;;;;;;;;;;5029992;28;20523;-46
2022/01/08 05:57:51;;;;;;;0.57;0.50;;;;;;;;;;5037068;28;20203;-46
2022/01/08 06:00:17;;;;;;;0.52;0.52;;;;;;;;;;5043008;28;20175;-46
2022/01/08 06:02:43;;;;;;;0.52;0.52;;;;;;;;;;5035248;28;20274;-46
2022/01/08 06:05:09;;;;;;;0.88;0.60;;;;;;;;;;5044274;28;20317;-46
2022/01/08 06:07:35;;;;;;;0.65;0.65;;;;;;;;;;5047460;28;20182;-46
2022/01/08 06:10:01;;;;;;;0.50;0.50;;;;;;;;;;5036768;28;20473;-46
2022/01/08 06:12:28;;;;;;;0.60;0.60;;;;;;;;;;5042992;28;20183;-46
2022/01/08 06:14:54;;;;;;;0.52;0.52;;;;;;;;;;5044477;28;20183;-46
2022/01/08 06:17:20;;;;;;;1.33;0.60;;;;;;;;;;5044543;28;20476;-46
2022/01/08 06:19:46;;;;;;;0.50;0.50;;;;;;;;;;5037527;28;20498;-46
2022/01/08 06:22:12;;;;;;;0.60;0.60;;;;;;;;;;5049767;28;20194;-46
2022/01/08 06:24:38;;;;;;;0.52;0.52;;;;;;;;;;5035528;28;20215;-46
2022/01/08 06:27:04;;;;;;;0.63;0.63;;;;;;;;;;5039552;28;20180;-46
2022/01/08 06:29:30;;;;;;;0.50;0.50;;;;;;;;;;5038159;28;20171;-46
2022/01/08 06:31:56;;;;;;;0.60;0.60;;;;;;;;;;5035801;28;20444;-46
2022/01/08 06:34:22;;;;;;;0.60;0.60;;;;;;;;;;5035901;28;20194;-46
2022/01/08 06:36:48;;;;;;;0.57;0.57;;;;;;;;;;5048225;28;20177;-46
2022/01/08 06:39:17;;;;;;;0.73;0.50;;;;;;;;;;5044343;28;20565;-46
2022/01/08 06:41:43;;;;;;;0.50;0.50;;;;;;;;;;5041775;28;20187;-46
2022/01/08 06:44:10;;;;;;;0.47;0.47;;;;;;;;;;5038058;28;20278;-46
2022/01/08 06:46:36;;;;;;;1.17;0.60;;;;;;;;;;5034544;28;20180;-46
2022/01/08 06:49:02;;;;;;;0.50;0.50;;;;;;;;;;5040255;28;20511;-46
2022/01/08 06:51:28;;;;;;;1.52;0.63;;;;;;;;;;5038771;28;20179;-46
2022/01/08 06:53:54;;;;;;;1.80;0.68;;;;;;;;;;5034634;28;20454;-46
2022/01/08 06:56:20;;;;;;;0.70;0.70;;;;;;;;;;5041846;28;20610;-46
2022/01/08 06:58:46;;;;;;;0.95;0.63;;;;;;;;;;5040941;28;20611;-46
2022/01/08 07:01:12;;;;;;;1.40;1.13;;;;;;;;;;5041325;28;20282;-46
2022/01/08 07:03:38;;;;;;;2.42;1.70;;;;;;;;;;5035585;28;20299;-46
2022/01/08 07:06:05;;;;;;;4.40;2.83;;;;;;;;;;5050953;28;20225;-46
2022/01/08 07:08:31;;;;;;;6.75;3.63;;;;;;;;;;5030147;28;20525;-46
2022/01/08 07:10:57;;;;;;;6.00;3.22;;;;;;;;;;5053192;28;20167;-46
2022/01/08 07:13:23;;;;;;;4.18;2.90;;;;;;;;;;5032489;28;20171;-46
2022/01/08 07:15:49;;;;;;;3.08;2.70;;;;;;;;;;5051108;28;20182;-46
2022/01/08 07:18:15;;;;;;;5.25;2.67;;;;;;;;;;5031257;28;20252;-46
2022/01/08 07:20:41;;;;;;;3.75;2.75;;;;;;;;;;5028366;28;20190;-46
2022/01/08 07:23:07;;;;;;;3.10;2.55;;;;;;;;;;5037757;28;20218;-46
2022/01/08 07:25:33;;;;;;;5.10;2.97;;;;;;;;;;5027691;28;20212;-46
2022/01/08 07:27:59;;;;;;;3.42;2.53;;;;;;;;;;5033752;28;20206;-46
2022/01/08 07:30:25;;;;;;;6.30;2.90;;;;;;;;;;5035219;28;20544;-46
2022/01/08 07:32:51;;;;;;;4.60;2.95;;;;;;;;;;5035250;28;20175;-46
2022/01/08 07:35:21;;;;;;;3.38;2.55;;;;;;;;;;5040141;28;20237;-46
2022/01/08 07:37:48;;;;;;;3.30;2.63;;;;;;;;;;5041268;28;20203;-46
2022/01/08 07:40:14;;;;;;;6.65;2.83;;;;;;;;;;5041892;28;20645;-46
2022/01/08 07:42:41;;;;;;;5.55;2.60;;;;;;;;;;5048469;28;20866;-46
2022/01/08 07:45:08;;;;;;;5.28;2.30;;;;;;;;;;5040675;28;20191;-46
2022/01/08 07:47:34;;;;;;;4.10;2.35;;;;;;;;;;5023292;28;20180;-46
2022/01/08 07:50:00;;;;;;;6.40;2.38;;;;;;;;;;5026517;28;20175;-46
2022/01/08 07:52:26;;;;;;;5.45;2.70;;;;;;;;;;5040461;28;20172;-46
2022/01/08 07:54:52;;;;;;;4.78;2.50;;;;;;;;;;5034699;28;20185;-46
2022/01/08 07:57:18;;;;;;;5.63;2.75;;;;;;;;;;5027193;28;20270;-46
2022/01/08 07:59:44;;;;;;;6.97;5.05;;;;;;;;;;5031422;28;20270;-46
2022/01/08 08:02:10;;;;;;;19.48;9.15;;;;;;;;;;5040250;28;20210;-50
2022/01/08 08:04:37;;;;;;;632.58;480.77;;;;;;;;;;5035291;28;20218;-49
2022/01/08 08:07:03;;;;;;;774.25;650.28;;;;;;;;;;5048499;28;20499;-50
2022/01/08 08:09:29;;;;;;;788.53;628.72;;;;;;;;;;5035813;28;20229;-56
2022/01/08 08:11:55;;;;;;;753.35;600.05;;;;;;;;;;5041421;28;20225;-49
2022/01/08 08:14:21;;;;;;;1670.28;978.05;;;;;;;;;;5031836;28;20202;-49
2022/01/08 08:16:47;;;;;;;1999.90;999.90;;;;;;;;;;5035848;28;20580;-49
2022/01/08 08:19:13;;;;;;;877.45;587.65;;;;;;;;;;5040582;28;20291;-49
2022/01/08 08:21:38;;;;;;;616.63;401.08;;;;;;;;;;5047934;28;20171;-50
2022/01/08 08:24:06;;;;;;;501.27;307.58;;;;;;;;;;5043089;28;20281;-52
2022/01/08 08:26:32;;;;;;;427.30;253.35;;;;;;;;;;5049843;28;20263;-50
2022/01/08 08:28:58;;;;;;;354.70;200.13;;;;;;;;;;5031229;28;20179;-50
2022/01/08 08:31:24;;;;;;;319.05;169.88;;;;;;;;;;5049355;28;20175;-49
2022/01/08 08:33:50;;;;;;;255.15;138.68;;;;;;;;;;5027224;28;20563;-50
2022/01/08 08:36:16;;;;;;;219.05;120.35;;;;;;;;;;5046900;28;20187;-49
2022/01/08 08:38:43;;;;;;;199.43;107.40;;;;;;;;;;5042330;28;20234;-50
2022/01/08 08:41:12;;;;;;;180.98;96.63;;;;;;;;;;5042030;28;20175;-49
2022/01/08 08:43:38;;;;;;;151.77;82.93;;;;;;;;;;5028953;28;20258;-49
2022/01/08 08:46:04;;;;;;;141.77;79.95;;;;;;;;;;5025366;28;20184;-49
2022/01/08 08:48:30;;;;;;;129.15;69.15;;;;;;;;;;5025337;28;20192;-49
2022/01/08 08:50:56;;;;;;;116.32;62.42;;;;;;;;;;5048970;28;20171;-49
2022/01/08 08:53:22;;;;;;;95.60;55.75;;;;;;;;;;5044618;28;20183;-53
2022/01/08 08:55:48;;;;;;;102.57;56.28;;;;;;;;;;5040836;28;20572;-51
2022/01/08 08:58:15;;;;;;;89.25;49.88;;;;;;;;;;5017262;28;20257;-50
2022/01/08 09:00:41;;;;;;;85.68;47.60;;;;;;;;;;5049989;28;20203;-48
2022/01/08 09:03:08;;;;;;;72.32;41.78;;;;;;;;;;5029172;28;20314;-50
2022/01/08 09:05:34;;;;;;;72.38;43.15;;;;;;;;;;5022868;28;20250;-48
2022/01/08 09:07:59;;;;;;;69.18;40.38;;;;;;;;;;5024979;28;20184;-48
2022/01/08 09:10:25;;;;;;;62.97;38.05;;;;;;;;;;5027117;28;20183;-50
2022/01/08 09:12:52;;;;;;;67.88;37.53;;;;;;;;;;5028957;28;20487;-55
2022/01/08 09:15:23;;;;;;;61.60;33.90;;;;;;;;;;5040950;28;20570;-50
2022/01/08 09:17:49;;;;;;;56.80;32.55;;;;;;;;;;5023177;28;20176;-50
2022/01/08 09:20:16;;;;;;;56.67;30.63;;;;;;;;;;5045197;28;20189;-49
2022/01/08 09:22:42;;;;;;;48.13;29.25;;;;;;;;;;5031748;28;20192;-55
2022/01/08 09:25:09;;;;;;;48.50;28.75;;;;;;;;;;5039134;28;20251;-51
2022/01/08 09:27:35;;;;;;;47.55;28.75;;;;;;;;;;5027027;28;20175;-54
2022/01/08 09:30:01;;;;;;;46.30;27.38;;;;;;;;;;5032858;28;20353;-48
2022/01/08 09:32:27;;;;;;;52.65;27.35;;;;;;;;;;5034992;28;20210;-46
2022/01/08 09:34:53;;;;;;;56.45;28.25;;;;;;;;;;5036034;28;20187;-49
2022/01/08 09:37:19;;;;;;;75.50;32.17;;;;;;;;;;5034286;28;20192;-50
2022/01/08 09:39:45;;;;;;;68.43;32.38;;;;;;;;;;5048049;28;20189;-50
2022/01/08 09:42:11;;;;;;;65.60;31.23;;;;;;;;;;5026789;28;20187;-50
2022/01/08 09:44:39;;;;;;;64.20;30.88;;;;;;;;;;5034146;28;20208;-50
2022/01/08 09:47:05;;;;;;;55.95;28.75;;;;;;;;;;5025684;28;20175;-50
2022/01/08 09:49:32;;;;;;;59.03;28.55;;;;;;;;;;5030596;28;20237;-50
2022/01/08 09:51:58;;;;;;;49.80;25.55;;;;;;;;;;5037310;28;20229;-49
2022/01/08 09:54:27;;;;;;;56.47;26.67;;;;;;;;;;5043516;28;20206;-49
2022/01/08 09:56:53;;;;;;;46.72;24.08;;;;;;;;;;5037864;28;20275;-51
2022/01/08 09:59:19;;;;;;;49.75;24.90;;;;;;;;;;5033904;28;20276;-50
2022/01/08 10:01:53;;;;;;;49.55;24.40;;;;;;;;;;5031238;28;20207;-50
2022/01/08 10:04:23;;;;;;;51.70;23.70;;;;;;;;;;5034428;28;20216;-49
2022/01/08 10:06:49;;;;;;;43.95;22.55;;;;;;;;;;5041335;28;20179;-49
2022/01/08 10:09:15;;;;;;;43.15;23.30;;;;;;;;;;5039077;28;20261;-50
2022/01/08 10:11:49;;;;;;;43.30;21.80;;;;;;;;;;5040099;28;20217;-49
2022/01/08 10:14:27;;;;;;;38.25;20.65;;;;;;;;;;5045519;28;20175;-50
2022/01/08 10:19:38;;;;;;;36.72;18.00;;;;;;;;;;5041374;28;20198;-49
2022/01/08 10:22:15;;;;;;;32.92;17.33;;;;;;;;;;5018685;28;20193;-50
2022/01/08 10:24:41;;;;;;;31.95;16.13;;;;;;;;;;5031231;28;20562;-50
2022/01/08 10:27:07;;;;;;;33.20;15.63;;;;;;;;;;5027923;28;20214;-50
2022/01/08 10:29:34;;;;;;;27.13;14.50;;;;;;;;;;5052676;28;20230;-49
2022/01/08 10:32:00;;;;;;;30.75;15.07;;;;;;;;;;5044506;28;20175;-49
2022/01/08 10:34:27;;;;;;;29.15;14.75;;;;;;;;;;5042136;28;20194;-50
2022/01/08 10:36:53;;;;;;;30.42;13.93;;;;;;;;;;5053214;28;20620;-49
2022/01/08 10:39:21;;;;;;;24.55;13.70;;;;;;;;;;5042862;28;20666;-50
2022/01/08 10:41:48;;;;;;;22.23;12.50;;;;;;;;;;5038804;28;20206;-50
2022/01/08 10:44:15;;;;;;;20.75;11.68;;;;;;;;;;5044302;28;20195;-50
2022/01/08 10:47:01;;;;;;;25.23;12.57;;;;;;;;;;5040241;28;20194;-49
2022/01/08 10:49:36;;;;;;;25.75;11.70;;;;;;;;;;5034389;28;20570;-49
2022/01/08 10:52:03;;;;;;;19.88;11.50;;;;;;;;;;5038830;28;20595;-50
2022/01/08 10:54:31;;;;;;;20.83;10.55;;;;;;;;;;5031864;28;20232;-50
2022/01/08 10:57:02;;;;;;;17.77;9.88;;;;;;;;;;5029869;28;20191;-50
2022/01/08 10:59:28;;;;;;;17.88;10.48;;;;;;;;;;5025788;28;20195;-50
2022/01/08 11:01:54;;;;;;;17.77;9.77;;;;;;;;;;5022643;28;20211;-50
2022/01/08 11:04:40;;;;;;;15.55;9.13;;;;;;;;;;5020813;28;20219;-50
2022/01/08 11:07:10;;;;;;;16.20;9.02;;;;;;;;;;5042910;28;20431;-50
2022/01/08 11:09:37;;;;;;;17.58;8.88;;;;;;;;;;5025970;28;20618;-50
2022/01/08 11:12:04;;;;;;;17.90;8.88;;;;;;;;;;5028254;28;20222;-49
2022/01/08 11:15:48;;;;;;;14.35;8.70;;;;;;;;;;5042820;28;20187;-49
2022/01/08 11:17:35;;;;;;;14.27;7.88;;;;;;;;;;5023781;28;20192;-50
2022/01/08 11:20:11;;;;;;;12.63;7.68;;;;;;;;;;5032997;28;20194;-49
2022/01/08 11:22:39;;;;;;;14.48;7.55;;;;;;;;;;5039561;28;20495;-50
2022/01/08 11:25:06;;;;;;;11.13;7.00;;;;;;;;;;5026797;28;20246;-50
2022/01/08 11:27:45;;;;;;;11.90;6.93;;;;;;;;;;5041704;28;20579;-50
2022/01/08 11:30:11;;;;;;;15.07;7.75;;;;;;;;;;5038631;28;20229;-50
2022/01/08 11:32:39;;;;;;;10.93;7.03;;;;;;;;;;5017476;28;20486;-49
2022/01/08 11:35:06;;;;;;;12.40;6.85;;;;;;;;;;5035761;28;20697;-49
2022/01/08 11:37:33;;;;;;;11.00;6.97;;;;;;;;;;5042775;28;20187;-50
2022/01/08 11:40:03;;;;;;;9.18;6.28;;;;;;;;;;5048746;28;20178;-49
2022/01/08 11:42:29;;;;;;;11.23;6.43;;;;;;;;;;5039347;28;20251;-50
2022/01/08 11:44:56;;;;;;;10.05;6.65;;;;;;;;;;5045068;28;20214;-50
2022/01/08 11:47:23;;;;;;;9.32;6.28;;;;;;;;;;5041718;28;20515;-50
2022/01/08 11:49:49;;;;;;;9.10;5.53;;;;;;;;;;5034179;28;20245;-49
2022/01/08 11:52:15;;;;;;;12.90;5.80;;;;;;;;;;5027740;28;20491;-50
2022/01/08 11:54:42;;;;;;;9.13;5.60;;;;;;;;;;5051441;28;20209;-49
2022/01/08 11:57:15;;;;;;;8.80;5.45;;;;;;;;;;5036633;28;20192;-49
2022/01/08 11:59:41;;;;;;;8.52;5.80;;;;;;;;;;5037899;28;20717;-51
2022/01/08 12:02:10;;;;;;;9.70;5.63;;;;;;;;;;5046639;28;20282;-50
2022/01/08 12:04:37;;;;;;;8.85;5.50;;;;;;;;;;5032011;28;20230;-50
2022/01/08 12:07:22;;;;;;;8.70;5.70;;;;;;;;;;5028558;28;20191;-50
2022/01/08 12:09:48;;;;;;;8.25;5.03;;;;;;;;;;5045982;28;20906;-50
2022/01/08 12:12:14;;;;;;;7.93;4.88;;;;;;;;;;5045076;28;20442;-51
2022/01/08 12:14:45;;;;;;;7.20;4.85;;;;;;;;;;5046410;28;20562;-51
2022/01/08 12:17:13;;;;;;;6.03;4.72;;;;;;;;;;5050160;28;20187;-50
2022/01/08 12:19:40;;;;;;;7.97;5.07;;;;;;;;;;5040904;28;20273;-50
2022/01/08 12:22:21;;;;;;;6.60;4.50;;;;;;;;;;5040971;28;20249;-50
2022/01/08 12:24:55;;;;;;;7.22;4.60;;;;;;;;;;5043070;28;20199;-50
2022/01/08 12:27:33;;;;;;;5.43;4.18;;;;;;;;;;5022047;28;20258;-49
2022/01/08 12:30:21;;;;;;;8.88;4.47;;;;;;;;;;5040019;28;20175;-50
2022/01/08 12:32:52;;;;;;;6.75;4.43;;;;;;;;;;5026359;28;20219;-50
2022/01/08 12:35:28;;;;;;;7.75;4.10;;;;;;;;;;5039442;28;20178;-50
2022/01/08 12:37:55;;;;;;;5.70;3.85;;;;;;;;;;5029937;28;20563;-50
2022/01/08 12:40:37;;;;;;;6.00;3.90;;;;;;;;;;5040992;28;20225;-50
2022/01/08 12:43:22;;;;;;;5.88;3.85;;;;;;;;;;5026619;28;20204;-51
2022/01/08 12:45:50;;;;;;;6.95;3.83;;;;;;;;;;5034724;28;20195;-50
2022/01/08 12:48:17;;;;;;;5.78;4.20;;;;;;;;;;5026220;28;20176;-50
2022/01/08 12:50:43;;;;;;;4.53;3.58;;;;;;;;;;5027665;28;20195;-51
2022/01/08 12:53:19;;;;;;;5.55;3.88;;;;;;;;;;5030412;28;20175;-50
2022/01/08 12:55:55;;;;;;;4.93;3.40;;;;;;;;;;5032970;28;20432;-50
2022/01/08 12:58:25;;;;;;;5.15;3.22;;;;;;;;;;5027160;28;20206;-50
2022/01/08 13:00:55;;;;;;;4.78;3.28;;;;;;;;;;5048928;28;20305;-50
2022/01/08 13:03:25;;;;;;;5.13;3.40;;;;;;;;;;5036290;28;20865;-51
2022/01/08 13:05:52;;;;;;;6.28;3.60;;;;;;;;;;5032068;28;20250;-50
2022/01/08 13:08:22;;;;;;;5.78;3.63;;;;;;;;;;5029865;28;20881;-50
2022/01/08 13:10:48;;;;;;;5.43;3.28;;;;;;;;;;5040422;28;20179;-51
2022/01/08 13:13:14;;;;;;;4.43;3.08;;;;;;;;;;5044459;28;20171;-50
2022/01/08 13:15:40;;;;;;;6.90;3.30;;;;;;;;;;5038108;28;20186;-50
2022/01/08 13:18:25;;;;;;;4.95;3.20;;;;;;;;;;5027726;28;20550;-50
2022/01/08 13:21:01;;;;;;;6.55;3.50;;;;;;;;;;5030116;28;20187;-49
2022/01/08 13:23:27;;;;;;;4.03;2.90;;;;;;;;;;5032817;28;20229;-49
2022/01/08 13:25:54;;;;;;;5.03;3.10;;;;;;;;;;5049345;28;20172;-50
2022/01/08 13:28:21;;;;;;;3.80;3.00;;;;;;;;;;5046750;28;20175;-50
2022/01/08 13:30:48;;;;;;;4.28;3.10;;;;;;;;;;5037580;28;20666;-50
2022/01/08 13:33:22;;;;;;;4.10;2.63;;;;;;;;;;5047464;28;20183;-50
2022/01/08 13:35:48;;;;;;;3.92;2.65;;;;;;;;;;5044930;28;21942;-49
2022/01/08 13:38:27;;;;;;;3.35;2.50;;;;;;;;;;5049669;28;20259;-50
2022/01/08 13:40:53;;;;;;;5.15;3.00;;;;;;;;;;5037433;28;20238;-50
2022/01/08 13:43:19;;;;;;;4.90;3.00;;;;;;;;;;5042278;28;20211;-50
2022/01/08 13:45:54;;;;;;;3.20;2.47;;;;;;;;;;5034598;28;20200;-50
2022/01/08 13:48:20;;;;;;;5.32;2.70;;;;;;;;;;5027130;28;20203;-50
2022/01/08 13:50:56;;;;;;;4.88;2.60;;;;;;;;;;5047246;28;20531;-50
2022/01/08 13:53:22;;;;;;;4.85;3.40;;;;;;;;;;5041171;28;20179;-50
2022/01/08 13:55:50;;;;;;;4.78;2.90;;;;;;;;;;5047246;28;20614;-50
2022/01/08 13:58:16;;;;;;;4.97;2.83;;;;;;;;;;5038195;28;20180;-50
2022/01/08 14:00:43;;;;;;;5.93;2.80;;;;;;;;;;5042399;28;20184;-50
2022/01/08 14:03:24;;;;;;;4.80;2.83;;;;;;;;;;5033725;28;20191;-50
2022/01/08 14:05:51;;;;;;;3.38;2.60;;;;;;;;;;5051676;28;20550;-50
2022/01/08 14:08:17;;;;;;;3.72;2.70;;;;;;;;;;5039750;28;20171;-49
2022/01/08 14:10:44;;;;;;;4.25;2.60;;;;;;;;;;5026756;28;20192;-50
2022/01/08 14:13:10;;;;;;;5.40;2.80;;;;;;;;;;5045944;28;20550;-51
2022/01/08 14:15:38;;;;;;;6.45;2.78;;;;;;;;;;5041797;28;20184;-49
2022/01/08 14:18:12;;;;;;;8.52;2.67;;;;;;;;;;5035072;28;20446;-50
2022/01/08 14:20:38;;;;;;;2.70;2.50;;;;;;;;;;5029347;28;20176;-50
2022/01/08 14:23:14;;;;;;;6.40;2.70;;;;;;;;;;5043493;28;20262;-50
2022/01/08 14:25:40;;;;;;;2.65;2.35;;;;;;;;;;5052207;28;20248;-50
2022/01/08 14:28:25;;;;;;;3.97;2.58;;;;;;;;;;5038478;28;20175;-50
2022/01/08 14:30:52;;;;;;;2.92;2.28;;;;;;;;;;5038208;28;20538;-50
2022/01/08 14:33:18;;;;;;;4.18;2.42;;;;;;;;;;5034774;28;20290;-50
2022/01/08 14:35:44;;;;;;;4.13;2.38;;;;;;;;;;5047675;28;20453;-50
2022/01/08 14:38:10;;;;;;;2.92;2.63;;;;;;;;;;5041055;28;20894;-49
2022/01/08 14:40:44;;;;;;;3.72;2.50;;;;;;;;;;5042591;28;20179;-49
2022/01/08 14:43:10;;;;;;;3.97;2.50;;;;;;;;;;5042212;28;20246;-49
2022/01/08 14:45:37;;;;;;;2.42;2.22;;;;;;;;;;5036575;28;20194;-49
2022/01/08 14:48:17;;;;;;;5.70;2.78;;;;;;;;;;5038334;28;20188;-50
2022/01/08 14:50:42;;;;;;;4.10;2.63;;;;;;;;;;5041206;28;20191;-50
2022/01/08 14:53:08;;;;;;;2.95;2.20;;;;;;;;;;5047943;28;20190;-50
2022/01/08 14:55:36;;;;;;;4.00;2.58;;;;;;;;;;5050133;28;20270;-50
2022/01/08 14:58:02;;;;;;;3.38;2.45;;;;;;;;;;5039046;28;20541;-50
2022/01/08 15:00:28;;;;;;;3.30;2.53;;;;;;;;;;5040666;28;20241;-49
2022/01/08 15:02:55;;;;;;;5.30;2.60;;;;;;;;;;5044289;28;20192;-49
2022/01/08 15:05:21;;;;;;;7.00;2.63;;;;;;;;;;5052651;28;20195;-51